createdAt,value
2018-01-05T00:00:49.291Z,0.00
2018-01-05T00:02:42.668Z,0.00
2018-01-05T00:03:42.678Z,0.00
2018-01-05T00:05:36.085Z,0.00
2018-01-05T00:06:36.074Z,0.00
2018-01-05T00:08:29.477Z,0.00
2018-01-05T00:09:29.484Z,0.00
2018-01-05T00:11:22.873Z,0.00
2018-01-05T00:12:22.877Z,0.00
2018-01-05T00:14:16.274Z,0.00
2018-01-05T00:15:16.276Z,0.00
2018-01-05T00:17:09.679Z,0.00
2018-01-05T00:18:09.663Z,0.00
2018-01-05T00:20:03.050Z,0.00
2018-01-05T00:21:03.073Z,0.00
2018-01-05T00:22:57.479Z,0.00
2018-01-05T00:23:57.486Z,0.00
2018-01-05T00:25:50.852Z,0.00
2018-01-05T00:26:50.841Z,0.00
2018-01-05T00:28:44.261Z,0.00
2018-01-05T00:29:44.228Z,0.00
2018-01-05T00:31:37.680Z,0.00
2018-01-05T00:32:37.623Z,0.00
2018-01-05T00:34:31.004Z,0.00
2018-01-05T00:35:31.029Z,0.00
2018-01-05T00:37:24.416Z,0.00
2018-01-05T00:38:24.402Z,0.00
2018-01-05T00:40:17.812Z,0.00
2018-01-05T00:41:17.818Z,0.00
2018-01-05T00:43:11.208Z,0.00
2018-01-05T00:44:11.212Z,0.00
2018-01-05T00:46:04.588Z,0.00
2018-01-05T00:47:04.628Z,0.00
2018-01-05T00:48:59.006Z,0.00
2018-01-05T00:49:58.990Z,0.00
2018-01-05T00:51:53.374Z,0.00
2018-01-05T00:52:53.384Z,0.00
2018-01-05T00:54:46.798Z,0.00
2018-01-05T00:55:46.781Z,0.00
2018-01-05T00:57:40.166Z,0.00
2018-01-05T00:58:40.196Z,0.00
2018-01-05T01:00:33.555Z,0.00
2018-01-05T01:01:33.542Z,0.00
2018-01-05T01:03:26.930Z,0.00
2018-01-05T01:04:26.936Z,0.00
2018-01-05T01:06:20.339Z,0.00
2018-01-05T01:07:20.322Z,0.00
2018-01-05T01:09:13.696Z,0.00
2018-01-05T01:10:13.702Z,0.00
2018-01-05T01:12:07.107Z,0.00
2018-01-05T01:13:07.094Z,0.00
2018-01-05T01:15:00.472Z,0.00
2018-01-05T01:16:00.477Z,0.00
2018-01-05T01:17:53.878Z,0.00
2018-01-05T01:18:53.875Z,0.00
2018-01-05T01:20:47.246Z,0.00
2018-01-05T01:21:47.265Z,0.00
2018-01-05T01:23:40.682Z,0.00
2018-01-05T01:24:40.663Z,0.00
2018-01-05T01:26:34.042Z,0.00
2018-01-05T01:27:34.028Z,0.00
2018-01-05T01:29:27.414Z,0.00
2018-01-05T01:30:27.426Z,0.00
2018-01-05T01:32:20.825Z,0.00
2018-01-05T01:33:20.801Z,0.00
2018-01-05T01:35:14.196Z,0.00
2018-01-05T01:36:14.198Z,0.00
2018-01-05T01:38:07.603Z,0.00
2018-01-05T01:39:07.591Z,0.00
2018-01-05T01:41:00.971Z,0.00
2018-01-05T01:42:00.977Z,0.00
2018-01-05T01:43:54.378Z,0.00
2018-01-05T01:44:54.364Z,0.00
2018-01-05T01:46:47.760Z,0.00
2018-01-05T01:47:47.774Z,0.00
2018-01-05T01:49:41.166Z,0.00
2018-01-05T01:50:41.143Z,0.00
2018-01-05T01:52:35.548Z,0.00
2018-01-05T01:53:35.538Z,0.00
2018-01-05T01:55:28.954Z,0.00
2018-01-05T01:56:28.932Z,0.00
2018-01-05T01:58:22.313Z,0.00
2018-01-05T01:59:22.321Z,0.00
2018-01-05T02:01:15.748Z,0.00
2018-01-05T02:02:15.725Z,0.00
2018-01-05T02:04:09.099Z,0.00
2018-01-05T02:05:09.109Z,0.00
2018-01-05T02:07:02.506Z,0.00
2018-01-05T02:08:02.502Z,0.00
2018-01-05T02:09:55.895Z,0.00
2018-01-05T02:10:55.892Z,0.00
2018-01-05T02:12:49.282Z,0.00
2018-01-05T02:13:49.265Z,0.00
2018-01-05T02:15:42.666Z,0.00
2018-01-05T02:16:42.653Z,0.00
2018-01-05T02:18:36.074Z,0.00
2018-01-05T02:19:36.046Z,0.00
2018-01-05T02:21:29.441Z,0.00
2018-01-05T02:22:29.431Z,0.00
2018-01-05T02:24:22.855Z,0.00
2018-01-05T02:25:22.818Z,0.00
2018-01-05T02:27:16.267Z,0.00
2018-01-05T02:28:16.284Z,0.00
2018-01-05T02:30:09.692Z,0.00
2018-01-05T02:31:09.700Z,0.00
2018-01-05T02:33:03.049Z,0.00
2018-01-05T02:34:03.062Z,0.00
2018-01-05T02:35:56.462Z,0.00
2018-01-05T02:36:56.434Z,0.00
2018-01-05T02:38:49.853Z,0.00
2018-01-05T02:39:49.840Z,0.00
2018-01-05T02:41:43.236Z,0.00
2018-01-05T02:42:43.226Z,0.00
2018-01-05T02:44:36.607Z,0.00
2018-01-05T02:45:36.605Z,0.00
2018-01-05T02:47:30.019Z,0.00
2018-01-05T02:48:30.001Z,0.00
2018-01-05T02:50:23.377Z,0.00
2018-01-05T02:51:23.380Z,0.00
2018-01-05T02:53:16.799Z,0.00
2018-01-05T02:54:16.766Z,0.00
2018-01-05T02:56:10.192Z,0.00
2018-01-05T02:57:10.163Z,0.00
2018-01-05T02:59:03.548Z,0.00
2018-01-05T03:00:03.556Z,0.00
2018-01-05T03:01:56.961Z,0.00
2018-01-05T03:02:56.941Z,0.00
2018-01-05T03:04:50.326Z,0.00
2018-01-05T03:05:50.330Z,0.00
2018-01-05T03:07:43.740Z,0.00
2018-01-05T03:08:43.720Z,0.00
2018-01-05T03:10:37.109Z,0.00
2018-01-05T03:11:37.118Z,0.00
2018-01-05T03:13:30.537Z,0.00
2018-01-05T03:14:30.503Z,0.00
2018-01-05T03:16:23.890Z,0.00
2018-01-05T03:17:23.888Z,0.00
2018-01-05T03:19:17.289Z,0.00
2018-01-05T03:20:17.275Z,0.00
2018-01-05T03:22:10.659Z,0.00
2018-01-05T03:23:10.675Z,0.00
2018-01-05T03:25:04.063Z,0.00
2018-01-05T03:26:04.047Z,0.00
2018-01-05T03:27:57.447Z,0.00
2018-01-05T03:28:57.450Z,0.00
2018-01-05T03:30:50.854Z,0.00
2018-01-05T03:31:50.835Z,0.00
2018-01-05T03:33:44.223Z,0.00
2018-01-05T03:34:44.222Z,0.00
2018-01-05T03:36:37.628Z,0.00
2018-01-05T03:37:37.628Z,0.00
2018-01-05T03:39:31.008Z,0.00
2018-01-05T03:40:30.997Z,0.00
2018-01-05T03:42:24.406Z,0.00
2018-01-05T03:43:24.387Z,0.00
2018-01-05T03:45:17.766Z,0.00
2018-01-05T03:46:17.777Z,0.00
2018-01-05T03:48:11.179Z,0.00
2018-01-05T03:49:11.160Z,0.00
2018-01-05T03:51:04.544Z,0.00
2018-01-05T03:52:04.551Z,0.00
2018-01-05T03:53:57.958Z,0.00
2018-01-05T03:54:57.939Z,0.00
2018-01-05T03:56:51.321Z,0.00
2018-01-05T03:57:51.323Z,0.00
2018-01-05T03:59:45.729Z,0.00
2018-01-05T04:00:45.729Z,0.00
2018-01-05T04:02:39.094Z,0.00
2018-01-05T04:03:39.102Z,0.00
2018-01-05T04:05:32.507Z,0.00
2018-01-05T04:06:32.490Z,0.00
2018-01-05T04:08:25.884Z,0.00
2018-01-05T04:09:25.887Z,0.00
2018-01-05T04:11:19.295Z,0.00
2018-01-05T04:12:19.274Z,0.00
2018-01-05T04:14:12.664Z,0.00
2018-01-05T04:15:12.664Z,0.00
2018-01-05T04:17:06.100Z,0.00
2018-01-05T04:18:06.062Z,0.00
2018-01-05T04:19:59.485Z,0.00
2018-01-05T04:20:59.449Z,0.00
2018-01-05T04:22:52.846Z,0.00
2018-01-05T04:23:52.837Z,0.00
2018-01-05T04:25:46.290Z,0.00
2018-01-05T04:26:46.272Z,0.00
2018-01-05T04:28:39.657Z,0.00
2018-01-05T04:29:39.660Z,0.00
2018-01-05T04:31:33.067Z,0.00
2018-01-05T04:32:33.045Z,0.00
2018-01-05T04:34:26.432Z,0.00
2018-01-05T04:35:26.434Z,0.00
2018-01-05T04:37:19.839Z,0.00
2018-01-05T04:38:19.825Z,0.00
2018-01-05T04:40:13.205Z,0.00
2018-01-05T04:41:13.210Z,0.00
2018-01-05T04:43:06.613Z,0.00
2018-01-05T04:44:06.597Z,0.00
2018-01-05T04:45:59.977Z,0.00
2018-01-05T04:46:59.995Z,0.00
2018-01-05T04:48:53.386Z,0.00
2018-01-05T04:49:53.367Z,0.00
2018-01-05T04:51:46.751Z,0.00
2018-01-05T04:52:46.762Z,0.00
2018-01-05T04:54:40.161Z,0.00
2018-01-05T04:55:40.144Z,0.00
2018-01-05T04:57:33.527Z,0.00
2018-01-05T04:58:33.530Z,0.00
2018-01-05T05:00:26.933Z,0.00
2018-01-05T05:01:26.916Z,0.00
2018-01-05T05:03:20.339Z,0.00
2018-01-05T05:04:20.305Z,0.00
2018-01-05T05:06:13.693Z,0.00
2018-01-05T05:07:13.807Z,0.00
2018-01-05T05:09:07.095Z,0.00
2018-01-05T05:10:07.076Z,0.00
2018-01-05T05:12:00.463Z,0.00
2018-01-05T05:13:00.468Z,0.00
2018-01-05T05:14:53.870Z,0.00
2018-01-05T05:15:53.852Z,0.00
2018-01-05T05:17:47.265Z,0.00
2018-01-05T05:18:47.273Z,0.00
2018-01-05T05:20:40.675Z,0.00
2018-01-05T05:21:40.659Z,0.00
2018-01-05T05:23:34.044Z,0.00
2018-01-05T05:24:34.045Z,0.00
2018-01-05T05:26:27.459Z,0.00
2018-01-05T05:27:27.435Z,0.00
2018-01-05T05:29:20.848Z,0.00
2018-01-05T05:30:20.830Z,0.00
2018-01-05T05:32:14.206Z,0.00
2018-01-05T05:33:14.213Z,0.00
2018-01-05T05:35:07.633Z,0.00
2018-01-05T05:36:07.596Z,0.00
2018-01-05T05:38:00.980Z,0.00
2018-01-05T05:39:00.992Z,0.00
2018-01-05T05:40:54.394Z,0.00
2018-01-05T05:41:54.371Z,0.00
2018-01-05T05:43:47.755Z,0.00
2018-01-05T05:44:47.755Z,0.00
2018-01-05T05:46:41.168Z,0.00
2018-01-05T05:47:41.149Z,0.00
2018-01-05T05:49:34.534Z,0.00
2018-01-05T05:50:34.561Z,0.00
2018-01-05T05:52:27.942Z,0.00
2018-01-05T05:53:27.924Z,0.00
2018-01-05T05:55:21.333Z,0.00
2018-01-05T05:56:21.330Z,0.00
2018-01-05T05:58:14.731Z,0.00
2018-01-05T05:59:14.715Z,0.00
2018-01-05T06:01:08.128Z,0.00
2018-01-05T06:02:08.103Z,0.00
2018-01-05T06:04:01.521Z,0.00
2018-01-05T06:05:01.495Z,0.00
2018-01-05T06:06:54.876Z,0.00
2018-01-05T06:07:54.878Z,0.00
2018-01-05T06:09:49.286Z,0.00
2018-01-05T06:10:49.271Z,0.00
2018-01-05T06:12:42.655Z,0.00
2018-01-05T06:13:42.660Z,0.00
2018-01-05T06:15:36.076Z,0.00
2018-01-05T06:16:36.068Z,0.00
2018-01-05T06:18:29.478Z,0.00
2018-01-05T06:19:29.440Z,0.00
2018-01-05T06:21:22.826Z,0.00
2018-01-05T06:22:22.830Z,0.00
2018-01-05T06:24:16.299Z,0.00
2018-01-05T06:25:16.292Z,0.00
2018-01-05T06:27:09.655Z,0.00
2018-01-05T06:28:09.657Z,0.00
2018-01-05T06:30:04.069Z,0.00
2018-01-05T06:31:04.047Z,0.00
2018-01-05T06:32:57.445Z,0.00
2018-01-05T06:33:57.437Z,0.00
2018-01-05T06:35:50.871Z,0.00
2018-01-05T06:36:50.832Z,0.00
2018-01-05T06:38:44.226Z,0.00
2018-01-05T06:39:44.222Z,0.00
2018-01-05T06:41:37.632Z,0.00
2018-01-05T06:42:37.619Z,0.00
2018-01-05T06:44:31.000Z,0.00
2018-01-05T06:45:31.002Z,0.00
2018-01-05T06:47:24.435Z,0.00
2018-01-05T06:48:24.394Z,0.00
2018-01-05T06:50:17.780Z,0.00
2018-01-05T06:51:17.776Z,0.00
2018-01-05T06:53:11.193Z,0.00
2018-01-05T06:54:11.199Z,0.00
2018-01-05T06:56:04.549Z,0.00
2018-01-05T06:57:04.549Z,0.00
2018-01-05T06:58:57.953Z,5.63
2018-01-05T06:59:57.937Z,5.63
2018-01-05T07:01:51.328Z,5.63
2018-01-05T07:02:51.322Z,5.63
2018-01-05T07:04:44.726Z,5.63
2018-01-05T07:05:44.713Z,11.25
2018-01-05T07:07:38.095Z,11.25
2018-01-05T07:08:38.095Z,11.25
2018-01-05T07:10:31.500Z,11.25
2018-01-05T07:11:31.485Z,11.25
2018-01-05T07:13:24.888Z,16.88
2018-01-05T07:14:24.887Z,16.88
2018-01-05T07:16:18.301Z,16.88
2018-01-05T07:17:18.284Z,22.50
2018-01-05T07:19:11.172Z,22.50
2018-01-05T07:20:11.175Z,28.13
2018-01-05T07:22:04.575Z,28.13
2018-01-05T07:23:04.557Z,33.75
2018-01-05T07:24:57.447Z,33.75
2018-01-05T07:25:57.447Z,33.75
2018-01-05T07:27:50.849Z,45.00
2018-01-05T07:28:50.833Z,45.00
2018-01-05T07:30:44.264Z,50.63
2018-01-05T07:31:44.267Z,56.25
2018-01-05T07:33:37.671Z,61.88
2018-01-05T07:34:37.653Z,61.88
2018-01-05T07:36:31.039Z,73.13
2018-01-05T07:37:31.040Z,73.13
2018-01-05T07:39:24.441Z,73.13
2018-01-05T07:40:24.429Z,78.75
2018-01-05T07:42:17.821Z,78.75
2018-01-05T07:43:17.813Z,78.75
2018-01-05T07:45:11.218Z,73.13
2018-01-05T07:46:11.244Z,73.13
2018-01-05T07:48:04.619Z,78.75
2018-01-05T07:49:04.586Z,78.75
2018-01-05T07:50:58.283Z,73.13
2018-01-05T07:51:57.972Z,78.75
2018-01-05T07:53:50.880Z,78.75
2018-01-05T07:54:50.860Z,78.75
2018-01-05T07:56:44.267Z,84.38
2018-01-05T07:57:44.269Z,84.38
2018-01-05T07:59:37.676Z,90.00
2018-01-05T08:00:37.660Z,95.63
2018-01-05T08:02:31.042Z,84.38
2018-01-05T08:03:31.044Z,90.00
2018-01-05T08:05:24.453Z,90.00
2018-01-05T08:06:24.436Z,90.00
2018-01-05T08:08:17.833Z,95.63
2018-01-05T08:09:17.831Z,95.63
2018-01-05T08:11:11.230Z,101.25
2018-01-05T08:12:11.217Z,101.25
2018-01-05T08:14:04.596Z,112.50
2018-01-05T08:15:04.599Z,118.13
2018-01-05T08:16:58.003Z,112.50
2018-01-05T08:17:57.986Z,106.88
2018-01-05T08:19:51.380Z,106.88
2018-01-05T08:20:51.375Z,106.88
2018-01-05T08:22:44.777Z,112.50
2018-01-05T08:23:44.766Z,112.50
2018-01-05T08:25:38.145Z,106.88
2018-01-05T08:26:38.147Z,112.50
2018-01-05T08:28:31.558Z,123.75
2018-01-05T08:29:31.538Z,135.00
2018-01-05T08:31:24.996Z,123.75
2018-01-05T08:32:24.924Z,123.75
2018-01-05T08:34:18.336Z,123.75
2018-01-05T08:35:18.332Z,118.13
2018-01-05T08:37:11.734Z,129.38
2018-01-05T08:38:11.716Z,123.75
2018-01-05T08:40:04.605Z,123.75
2018-01-05T08:41:04.608Z,129.38
2018-01-05T08:42:58.011Z,129.38
2018-01-05T08:43:57.995Z,129.38
2018-01-05T08:45:51.385Z,129.38
2018-01-05T08:46:51.386Z,135.00
2018-01-05T08:48:44.797Z,129.38
2018-01-05T08:49:44.780Z,129.38
2018-01-05T08:51:38.168Z,135.00
2018-01-05T08:52:38.171Z,129.38
2018-01-05T08:54:31.624Z,135.00
2018-01-05T08:55:31.608Z,140.63
2018-01-05T08:57:24.998Z,135.00
2018-01-05T08:58:24.996Z,135.00
2018-01-05T09:00:17.914Z,135.00
2018-01-05T09:01:17.889Z,135.00
2018-01-05T09:03:11.272Z,146.25
2018-01-05T09:04:11.275Z,146.25
2018-01-05T09:06:04.681Z,146.25
2018-01-05T09:07:04.663Z,157.50
2018-01-05T09:08:58.085Z,163.13
2018-01-05T09:09:58.061Z,163.13
2018-01-05T09:11:51.443Z,168.75
2018-01-05T09:12:51.447Z,174.38
2018-01-05T09:14:44.852Z,180.00
2018-01-05T09:15:44.834Z,180.00
2018-01-05T09:17:38.267Z,185.63
2018-01-05T09:18:38.271Z,196.88
2018-01-05T09:20:31.676Z,247.50
2018-01-05T09:21:31.660Z,247.50
2018-01-05T09:23:25.041Z,230.63
2018-01-05T09:24:25.049Z,275.63
2018-01-05T09:26:18.453Z,388.13
2018-01-05T09:27:18.436Z,500.63
2018-01-05T09:29:11.833Z,365.63
2018-01-05T09:30:11.837Z,534.38
2018-01-05T09:32:05.251Z,590.63
2018-01-05T09:33:05.227Z,652.50
2018-01-05T09:34:58.611Z,613.13
2018-01-05T09:35:58.616Z,686.25
2018-01-05T09:37:52.032Z,663.75
2018-01-05T09:38:52.020Z,978.75
2018-01-05T09:40:45.405Z,1085.63
2018-01-05T09:41:45.419Z,753.75
2018-01-05T09:43:38.814Z,1046.25
2018-01-05T09:44:38.808Z,1046.25
2018-01-05T09:46:32.191Z,736.88
2018-01-05T09:47:32.194Z,838.13
2018-01-05T09:49:25.604Z,1400.63
2018-01-05T09:50:25.589Z,821.25
2018-01-05T09:52:18.977Z,1063.13
2018-01-05T09:53:18.986Z,911.25
2018-01-05T09:55:12.394Z,573.75
2018-01-05T09:56:12.378Z,326.25
2018-01-05T09:58:05.272Z,281.25
2018-01-05T09:59:05.277Z,281.25
2018-01-05T10:00:58.690Z,360.00
2018-01-05T10:01:58.672Z,421.88
2018-01-05T10:03:51.590Z,376.88
2018-01-05T10:04:51.570Z,506.25
2018-01-05T10:06:44.964Z,410.63
2018-01-05T10:07:44.968Z,433.13
2018-01-05T10:09:38.387Z,444.38
2018-01-05T10:10:38.372Z,405.00
2018-01-05T10:12:31.761Z,393.75
2018-01-05T10:13:31.769Z,483.75
2018-01-05T10:15:25.186Z,523.13
2018-01-05T10:16:25.173Z,590.63
2018-01-05T10:18:18.559Z,585.00
2018-01-05T10:19:18.566Z,585.00
2018-01-05T10:21:11.987Z,528.75
2018-01-05T10:22:11.964Z,545.63
2018-01-05T10:24:05.367Z,517.50
2018-01-05T10:25:05.366Z,483.75
2018-01-05T10:26:58.784Z,388.13
2018-01-05T10:27:58.776Z,399.38
2018-01-05T10:29:52.164Z,421.88
2018-01-05T10:30:52.162Z,405.00
2018-01-05T10:32:45.572Z,393.75
2018-01-05T10:33:45.560Z,388.13
2018-01-05T10:35:38.454Z,326.25
2018-01-05T10:36:38.459Z,315.00
2018-01-05T10:38:31.866Z,309.38
2018-01-05T10:39:31.856Z,292.50
2018-01-05T10:41:24.747Z,298.13
2018-01-05T10:42:24.754Z,326.25
2018-01-05T10:44:17.720Z,354.38
2018-01-05T10:45:17.648Z,343.13
2018-01-05T10:47:10.975Z,331.88
2018-01-05T10:48:10.751Z,348.75
2018-01-05T10:50:04.189Z,365.63
2018-01-05T10:51:03.602Z,360.00
2018-01-05T10:52:57.504Z,326.25
2018-01-05T10:53:57.596Z,292.50
2018-01-05T10:55:51.112Z,315.00
2018-01-05T10:56:50.709Z,331.88
2018-01-05T10:58:45.135Z,365.63
2018-01-05T10:59:45.139Z,371.25
2018-01-05T11:01:39.815Z,348.75
2018-01-05T11:02:38.545Z,315.00
2018-01-05T11:04:31.615Z,315.00
2018-01-05T11:05:31.911Z,309.38
2018-01-05T11:07:24.532Z,309.38
2018-01-05T11:08:24.518Z,348.75
2018-01-05T11:10:17.413Z,433.13
2018-01-05T11:11:17.416Z,444.38
2018-01-05T11:13:10.334Z,438.75
2018-01-05T11:14:10.315Z,438.75
2018-01-05T11:16:03.239Z,500.63
2018-01-05T11:17:03.211Z,461.25
2018-01-05T11:18:56.151Z,455.63
2018-01-05T11:19:56.135Z,410.63
2018-01-05T11:21:49.029Z,382.50
2018-01-05T11:22:49.037Z,399.38
2018-01-05T11:24:42.455Z,438.75
2018-01-05T11:25:42.469Z,427.50
2018-01-05T11:27:35.364Z,444.38
2018-01-05T11:28:35.339Z,427.50
2018-01-05T11:30:28.230Z,399.38
2018-01-05T11:31:28.239Z,438.75
2018-01-05T11:33:21.151Z,495.00
2018-01-05T11:34:21.134Z,517.50
2018-01-05T11:36:14.028Z,534.38
2018-01-05T11:37:14.035Z,601.88
2018-01-05T11:39:06.958Z,1035.00
2018-01-05T11:40:06.935Z,511.88
2018-01-05T11:41:59.829Z,331.88
2018-01-05T11:42:59.859Z,298.13
2018-01-05T11:44:52.749Z,326.25
2018-01-05T11:45:52.745Z,331.88
2018-01-05T11:47:45.634Z,337.50
2018-01-05T11:48:45.700Z,343.13
2018-01-05T11:50:38.553Z,365.63
2018-01-05T11:51:38.538Z,382.50
2018-01-05T11:53:31.432Z,433.13
2018-01-05T11:54:31.436Z,433.13
2018-01-05T11:56:24.387Z,472.50
2018-01-05T11:57:24.359Z,523.13
2018-01-05T11:59:17.296Z,618.75
2018-01-05T12:00:17.302Z,618.75
2018-01-05T12:02:10.178Z,641.25
2018-01-05T12:03:10.161Z,607.50
2018-01-05T12:05:03.063Z,669.38
2018-01-05T12:06:03.063Z,669.38
2018-01-05T12:07:56.084Z,871.88
2018-01-05T12:08:55.986Z,1029.38
2018-01-05T12:10:48.884Z,708.75
2018-01-05T12:11:48.888Z,708.75
2018-01-05T12:13:41.805Z,855.00
2018-01-05T12:14:41.790Z,624.38
2018-01-05T12:16:34.687Z,562.50
2018-01-05T12:17:34.702Z,495.00
2018-01-05T12:19:27.612Z,433.13
2018-01-05T12:20:27.596Z,348.75
2018-01-05T12:22:20.488Z,337.50
2018-01-05T12:23:20.496Z,337.50
2018-01-05T12:25:13.930Z,320.63
2018-01-05T12:26:13.891Z,371.25
2018-01-05T12:28:06.800Z,500.63
2018-01-05T12:29:06.808Z,556.88
2018-01-05T12:30:59.760Z,455.63
2018-01-05T12:31:59.737Z,371.25
2018-01-05T12:33:52.637Z,270.00
2018-01-05T12:34:52.641Z,230.63
2018-01-05T12:36:45.567Z,241.88
2018-01-05T12:37:45.537Z,253.13
2018-01-05T12:39:38.431Z,174.38
2018-01-05T12:40:38.437Z,174.38
2018-01-05T12:42:31.416Z,157.50
2018-01-05T12:43:31.400Z,151.88
2018-01-05T12:45:24.318Z,140.63
2018-01-05T12:46:24.306Z,135.00
2018-01-05T12:48:17.191Z,151.88
2018-01-05T12:49:17.226Z,174.38
2018-01-05T12:51:10.222Z,180.00
2018-01-05T12:52:10.134Z,168.75
2018-01-05T12:54:03.037Z,140.63
2018-01-05T12:55:03.038Z,135.00
2018-01-05T12:56:55.952Z,106.88
2018-01-05T12:57:55.935Z,95.63
2018-01-05T12:59:48.833Z,95.63
2018-01-05T13:00:48.835Z,95.63
2018-01-05T13:02:41.748Z,95.63
2018-01-05T13:03:41.733Z,90.00
2018-01-05T13:05:34.626Z,101.25
2018-01-05T13:06:34.636Z,106.88
2018-01-05T13:08:27.545Z,118.13
2018-01-05T13:09:27.528Z,118.13
2018-01-05T13:11:20.916Z,106.88
2018-01-05T13:12:20.918Z,118.13
2018-01-05T13:14:13.831Z,123.75
2018-01-05T13:15:13.818Z,135.00
2018-01-05T13:17:06.715Z,129.38
2018-01-05T13:18:06.719Z,118.13
2018-01-05T13:19:59.636Z,112.50
2018-01-05T13:20:59.618Z,106.88
2018-01-05T13:22:52.511Z,106.88
2018-01-05T13:23:52.512Z,106.88
2018-01-05T13:25:45.428Z,112.50
2018-01-05T13:26:45.412Z,106.88
2018-01-05T13:28:38.830Z,101.25
2018-01-05T13:29:38.813Z,106.88
2018-01-05T13:31:31.732Z,112.50
2018-01-05T13:32:31.718Z,112.50
2018-01-05T13:34:25.123Z,112.50
2018-01-05T13:35:25.127Z,112.50
2018-01-05T13:37:18.523Z,106.88
2018-01-05T13:38:18.511Z,106.88
2018-01-05T13:40:11.893Z,95.63
2018-01-05T13:41:11.903Z,90.00
2018-01-05T13:43:05.311Z,90.00
2018-01-05T13:44:05.299Z,90.00
2018-01-05T13:45:58.682Z,90.00
2018-01-05T13:46:58.689Z,90.00
2018-01-05T13:48:52.133Z,84.38
2018-01-05T13:49:52.091Z,78.75
2018-01-05T13:51:45.479Z,84.38
2018-01-05T13:52:45.512Z,84.38
2018-01-05T13:54:38.915Z,84.38
2018-01-05T13:55:38.899Z,78.75
2018-01-05T13:57:32.288Z,73.13
2018-01-05T13:58:32.300Z,73.13
2018-01-05T14:00:25.695Z,73.13
2018-01-05T14:01:25.677Z,73.13
2018-01-05T14:03:19.089Z,78.75
2018-01-05T14:04:19.068Z,78.75
2018-01-05T14:06:12.482Z,78.75
2018-01-05T14:07:12.494Z,73.13
2018-01-05T14:09:05.856Z,67.50
2018-01-05T14:10:05.861Z,61.88
2018-01-05T14:11:59.275Z,56.25
2018-01-05T14:12:59.254Z,56.25
2018-01-05T14:14:52.688Z,61.88
2018-01-05T14:15:52.644Z,61.88
2018-01-05T14:17:46.052Z,61.88
2018-01-05T14:18:46.042Z,56.25
2018-01-05T14:20:39.424Z,50.63
2018-01-05T14:21:39.432Z,45.00
2018-01-05T14:23:32.842Z,45.00
2018-01-05T14:24:32.844Z,45.00
2018-01-05T14:26:26.270Z,50.63
2018-01-05T14:27:26.271Z,56.25
2018-01-05T14:29:19.721Z,67.50
2018-01-05T14:30:19.700Z,73.13
2018-01-05T14:32:13.092Z,78.75
2018-01-05T14:33:13.098Z,78.75
2018-01-05T14:35:06.512Z,78.75
2018-01-05T14:36:06.490Z,73.13
2018-01-05T14:37:59.884Z,67.50
2018-01-05T14:38:59.885Z,61.88
2018-01-05T14:40:53.290Z,56.25
2018-01-05T14:41:53.275Z,56.25
2018-01-05T14:43:46.706Z,56.25
2018-01-05T14:44:46.720Z,50.63
2018-01-05T14:46:40.073Z,50.63
2018-01-05T14:47:40.061Z,50.63
2018-01-05T14:49:33.495Z,50.63
2018-01-05T14:50:33.456Z,50.63
2018-01-05T14:52:27.853Z,45.00
2018-01-05T14:53:27.845Z,39.38
2018-01-05T14:55:22.398Z,33.75
2018-01-05T14:56:22.310Z,28.13
2018-01-05T14:58:15.670Z,33.75
2018-01-05T14:59:15.674Z,33.75
2018-01-05T15:01:09.095Z,33.75
2018-01-05T15:02:09.081Z,28.13
2018-01-05T15:04:02.476Z,28.13
2018-01-05T15:05:02.479Z,28.13
2018-01-05T15:06:55.896Z,33.75
2018-01-05T15:07:55.881Z,39.38
2018-01-05T15:09:49.330Z,39.38
2018-01-05T15:10:49.283Z,39.38
2018-01-05T15:12:42.683Z,28.13
2018-01-05T15:13:42.688Z,28.13
2018-01-05T15:15:36.081Z,28.13
2018-01-05T15:16:36.074Z,28.13
2018-01-05T15:18:29.514Z,28.13
2018-01-05T15:19:29.495Z,22.50
2018-01-05T15:21:22.906Z,22.50
2018-01-05T15:22:22.853Z,16.88
2018-01-05T15:24:16.275Z,16.88
2018-01-05T15:25:16.274Z,11.25
2018-01-05T15:27:09.683Z,16.88
2018-01-05T15:28:09.676Z,16.88
2018-01-05T15:30:03.062Z,16.88
2018-01-05T15:31:03.074Z,11.25
2018-01-05T15:32:56.534Z,11.25
2018-01-05T15:33:56.448Z,11.25
2018-01-05T15:35:49.834Z,5.63
2018-01-05T15:36:49.842Z,5.63
2018-01-05T15:38:43.246Z,5.63
2018-01-05T15:39:43.230Z,5.63
2018-01-05T15:41:36.638Z,0.00
2018-01-05T15:42:36.651Z,0.00
2018-01-05T15:44:30.052Z,0.00
2018-01-05T15:45:30.012Z,0.00
2018-01-05T15:47:23.414Z,0.00
2018-01-05T15:48:23.417Z,0.00
2018-01-05T15:50:16.862Z,0.00
2018-01-05T15:51:16.841Z,0.00
2018-01-05T15:53:10.276Z,0.00
2018-01-05T15:54:10.306Z,0.00
2018-01-05T15:56:03.696Z,0.00
2018-01-05T15:57:03.671Z,0.00
2018-01-05T15:58:57.058Z,0.00
2018-01-05T15:59:57.072Z,0.00
2018-01-05T16:01:50.473Z,0.00
2018-01-05T16:02:50.468Z,0.00
2018-01-05T16:04:43.842Z,0.00
2018-01-05T16:05:43.851Z,0.00
2018-01-05T16:07:37.270Z,0.00
2018-01-05T16:08:37.269Z,0.00
2018-01-05T16:10:30.642Z,0.00
2018-01-05T16:11:30.638Z,0.00
2018-01-05T16:13:24.078Z,0.00
2018-01-05T16:14:24.065Z,0.00
2018-01-05T16:16:17.436Z,0.00
2018-01-05T16:17:17.429Z,0.00
2018-01-05T16:19:10.842Z,0.00
2018-01-05T16:20:10.824Z,0.00
2018-01-05T16:22:04.268Z,0.00
2018-01-05T16:23:04.319Z,0.00
2018-01-05T16:24:57.692Z,0.00
2018-01-05T16:25:57.720Z,0.00
2018-01-05T16:27:51.102Z,0.00
2018-01-05T16:28:51.082Z,0.00
2018-01-05T16:30:44.499Z,0.00
2018-01-05T16:31:44.518Z,0.00
2018-01-05T16:33:37.904Z,0.00
2018-01-05T16:34:37.902Z,0.00
2018-01-05T16:36:31.263Z,0.00
2018-01-05T16:37:31.296Z,0.00
2018-01-05T16:39:25.064Z,0.00
2018-01-05T16:40:25.057Z,0.00
2018-01-05T16:42:18.467Z,0.00
2018-01-05T16:43:18.440Z,0.00
2018-01-05T16:45:19.513Z,0.00
2018-01-05T16:46:19.479Z,0.00
2018-01-05T16:48:05.240Z,0.00
2018-01-05T16:49:05.255Z,0.00
2018-01-05T16:50:58.638Z,0.00
2018-01-05T16:51:58.623Z,0.00
2018-01-05T16:53:52.087Z,0.00
2018-01-05T16:54:52.050Z,0.00
2018-01-05T16:56:45.438Z,0.00
2018-01-05T16:57:45.442Z,0.00
2018-01-05T16:59:38.833Z,0.00
2018-01-05T17:00:38.824Z,0.00
2018-01-05T17:02:32.221Z,0.00
2018-01-05T17:03:32.206Z,0.00
2018-01-05T17:05:25.590Z,0.00
2018-01-05T17:06:25.593Z,0.00
2018-01-05T17:08:19.010Z,0.00
2018-01-05T17:09:18.994Z,0.00
2018-01-05T17:11:12.394Z,0.00
2018-01-05T17:12:12.404Z,0.00
2018-01-05T17:14:05.804Z,0.00
2018-01-05T17:15:05.789Z,0.00
2018-01-05T17:16:59.176Z,0.00
2018-01-05T17:17:59.180Z,0.00
2018-01-05T17:19:53.590Z,0.00
2018-01-05T17:20:53.570Z,0.00
2018-01-05T17:22:47.002Z,0.00
2018-01-05T17:23:46.972Z,0.00
2018-01-05T17:25:40.362Z,0.00
2018-01-05T17:26:40.365Z,0.00
2018-01-05T17:28:33.779Z,0.00
2018-01-05T17:29:33.765Z,0.00
2018-01-05T17:31:27.192Z,0.00
2018-01-05T17:32:27.188Z,0.00
2018-01-05T17:34:20.595Z,0.00
2018-01-05T17:35:20.583Z,0.00
2018-01-05T17:37:13.990Z,0.00
2018-01-05T17:38:13.983Z,0.00
2018-01-05T17:40:07.400Z,0.00
2018-01-05T17:41:07.374Z,0.00
2018-01-05T17:43:00.767Z,0.00
2018-01-05T17:44:00.787Z,0.00
2018-01-05T17:45:54.177Z,0.00
2018-01-05T17:46:54.161Z,0.00
2018-01-05T17:48:47.566Z,0.00
2018-01-05T17:49:47.563Z,0.00
2018-01-05T17:51:40.976Z,0.00
2018-01-05T17:52:40.955Z,0.00
2018-01-05T17:54:34.346Z,0.00
2018-01-05T17:55:34.346Z,0.00
2018-01-05T17:57:27.767Z,0.00
2018-01-05T17:58:27.754Z,0.00
2018-01-05T18:00:21.136Z,0.00
2018-01-05T18:01:21.139Z,0.00
2018-01-05T18:03:14.547Z,0.00
2018-01-05T18:04:14.536Z,0.00
2018-01-05T18:06:07.958Z,0.00
2018-01-05T18:07:07.962Z,0.00
2018-01-05T18:09:01.367Z,0.00
2018-01-05T18:10:01.351Z,0.00
2018-01-05T18:11:54.742Z,0.00
2018-01-05T18:12:54.792Z,0.00
2018-01-05T18:14:48.164Z,0.00
2018-01-05T18:15:48.148Z,0.00
2018-01-05T18:17:41.538Z,0.00
2018-01-05T18:18:41.538Z,0.00
2018-01-05T18:20:34.947Z,0.00
2018-01-05T18:21:34.931Z,0.00
2018-01-05T18:23:28.324Z,0.00
2018-01-05T18:24:28.323Z,0.00
2018-01-05T18:26:21.733Z,0.00
2018-01-05T18:27:21.716Z,0.00
2018-01-05T18:29:15.104Z,0.00
2018-01-05T18:30:15.107Z,0.00
2018-01-05T18:32:08.514Z,0.00
2018-01-05T18:33:08.500Z,0.00
2018-01-05T18:35:01.906Z,0.00
2018-01-05T18:36:01.892Z,0.00
2018-01-05T18:37:55.297Z,0.00
2018-01-05T18:38:55.280Z,0.00
2018-01-05T18:40:48.668Z,0.00
2018-01-05T18:41:48.675Z,0.00
2018-01-05T18:43:42.080Z,0.00
2018-01-05T18:44:42.063Z,0.00
2018-01-05T18:46:35.452Z,0.00